Wauneta, NE (69045)

8:50 AM MST on December 07, 2016 (GMT -0700)
Imperial Municipal | | Change Station

Elev 3274 ft 40.51 °N, 101.62 °W | Updated 13 minutes ago

Light Snow
Light Snow
12 °F
Feels Like -4 °F
N
15
Wind Variable Wind from North

Today
High -- | Low -- °F
--% Chance of Precip.
Yesterday
High -- | Low -- °F
Precip. -- in
Pressure 30.28 in
Visibility 1.2 miles
Clouds Mostly Cloudy 1900 ft
Overcast 2900 ft
Windchill -4 °F
Dew Point 7 °F
Humidity 80%
Rainfall 0.00 in
Snow Depth Not available.
6:55 AM 4:18 PM
First Quarter, 53% visible
SPECI KIML 071537Z AUTO 01013KT 1 1/4SM -SN BKN019 OVC029 M11/M14 A3028 RMK AO2 P0000 T11111139
Pressure 30.28 in
Visibility 1.2 miles
Clouds Mostly Cloudy 1900 ft
Overcast 2900 ft
Windchill -4 °F
Dew Point 7 °F
Humidity 80%
Rainfall 0.00 in
Snow Depth Not available.
6:55 AM 4:18 PM
First Quarter, 53% visible
SPECI KIML 071537Z AUTO 01013KT 1 1/4SM -SN BKN019 OVC029 M11/M14 A3028 RMK AO2 P0000 T11111139

10-Day Weather Forecast

Almanac

Astronomy

Dec. 07, 2016 Rise Set
Actual Time
Civil Twilight
Nautical Twilight
Astronomical Twilight
Moon
Length of Visible Light
Length of Day
Tomorrow will be .
, % of the Moon is Illuminated

Today's Extremes

State Highs State Lows

Community

WunderPhotos

Upload Photos

1,956,124 photos uploaded!

WunderBlog® & News

Nearby

Air Quality

  Air Quality AQ Index Pollutant
Not available.

Snow Depth

Station Depth Elevation

Earthquake Activity

City Distance Mag. Time & Date
Minimum magnitude displayed is 2.5.

Coastal Water Temperatures

Place Temperature

Stations

Nearby Weather Stations

Station Location Temp. Windchill Dew Point Humidity Wind Precip. Elev Updated Type
                   

Watches & Warnings

There are currently no watches in effect.